Accueil
METAR-TAF:

METAR-TAF

Aéroports :

Aéroport international Saint-Gall-Altenrhein

Saint-Gall, Suisse

latitude: 47-29-06N, longitude: 009-33-43E, altitude: 398 m

Observation

Le bulletin a été fait il y a 33 minutes, à 18:20 UTC
Vent 5 kt de nord/nord-est, variant entre nord et est/nord-est
Température 6°C
Humidité 75%
Pression 1033 hPa
Visibilité 10 km ou plus
Ciel couvert à une hauteur de 3700 ft

METAR: LSZR 271820Z AUTO 03005KT 360V060 9999 OVC037 06/02 Q1033

Heure: 19:53 (18:53 UTC)

Prévision

Le bulletin a été fait il y a 4 heures et 28 minutes, à 14:25 UTC
Prévision valable du 27 à 15 UTC au 27 à 24 UTC
Vent 8 kt de nord-est
Visibilité 10 km ou plus
Nuages épars à une hauteur de 2500 ft
Temporairement
du 27 à 15 UTC au 27 à 18 UTC
Vent 15 kt de nord-est avec des rafales jusqu'à 25 kt

TAF: LSZR 271425Z 2715/2724 04008KT 9999 SCT025 TEMPO 2715/2718 04015G25KT

Observations et prévisions météorologiques de plus de 4000 aéroports (messages METAR et TAF).

Les stations disponibles sont représentées par des disques jaunes et rouges sur la carte.

Passer la souris dessus pour voir le nom de la station.

Cliquer dessus pour voir les observations et prévisions météorologiques.

Pour changer de carte: cliquez sur les boutons verts avec une croix noire pour zoomer, sur le bouton vert avec un tiret pour effectuer un zoom arrière, ou sur les flèches vertes pour les cartes adjacentes.


METAR-TAF: